createdAt,value
2022-10-22T00:00:20.624Z,4.42
2022-10-22T00:02:53.762Z,4.37
2022-10-22T00:05:26.804Z,4.31
2022-10-22T00:07:59.754Z,4.27
2022-10-22T00:10:33.304Z,4.26
2022-10-22T00:13:07.159Z,4.22
2022-10-22T00:15:42.009Z,4.18
2022-10-22T00:18:15.046Z,4.11
2022-10-22T00:20:47.838Z,4.06
2022-10-22T00:23:20.789Z,3.99
2022-10-22T00:25:56.175Z,3.99
2022-10-22T00:28:29.364Z,3.98
2022-10-22T00:31:03.780Z,3.96
2022-10-22T00:33:37.698Z,3.94
2022-10-22T00:36:11.229Z,3.90
2022-10-22T00:38:45.075Z,3.85
2022-10-22T00:41:18.345Z,3.83
2022-10-22T00:44:04.799Z,3.80
2022-10-22T00:46:38.255Z,3.80
2022-10-22T00:49:11.472Z,3.79
2022-10-22T00:51:44.304Z,3.80
2022-10-22T00:54:17.259Z,3.79
2022-10-22T00:56:50.222Z,3.77
2022-10-22T00:59:23.636Z,3.76
2022-10-22T01:01:56.910Z,3.74
2022-10-22T01:04:29.747Z,3.70
2022-10-22T01:07:03.556Z,3.67
2022-10-22T01:09:46.354Z,3.62
2022-10-22T01:12:43.627Z,3.56
2022-10-22T01:15:26.308Z,3.53
2022-10-22T01:18:20.973Z,3.49
2022-10-22T01:21:23.659Z,3.48
2022-10-22T01:24:27.361Z,3.44
2022-10-22T01:27:13.760Z,3.40
2022-10-22T01:29:56.626Z,3.38
2022-10-22T01:32:30.743Z,3.36
2022-10-22T01:35:09.157Z,3.34
2022-10-22T01:37:52.026Z,3.32
2022-10-22T01:40:26.822Z,3.33
2022-10-22T01:43:03.976Z,3.35
2022-10-22T01:45:51.844Z,3.34
2022-10-22T01:49:03.424Z,3.26
2022-10-22T01:51:59.060Z,3.21
2022-10-22T01:54:40.127Z,3.15
2022-10-22T01:57:44.408Z,3.11
2022-10-22T02:00:19.074Z,3.02
2022-10-22T02:03:05.370Z,2.99
2022-10-22T02:05:53.132Z,3.00
2022-10-22T02:08:32.737Z,2.98
2022-10-22T02:11:06.708Z,2.97
2022-10-22T02:13:42.333Z,2.96
2022-10-22T02:16:16.979Z,2.97
2022-10-22T02:18:50.630Z,2.97
2022-10-22T02:21:23.562Z,3.01
2022-10-22T02:23:56.551Z,2.99
2022-10-22T02:26:48.152Z,2.96
2022-10-22T02:29:28.489Z,2.91
2022-10-22T02:32:03.207Z,2.86
2022-10-22T02:34:36.380Z,2.78
2022-10-22T02:37:10.589Z,2.77
2022-10-22T02:39:44.344Z,2.76
2022-10-22T02:42:18.525Z,2.76
2022-10-22T02:44:52.423Z,2.75
2022-10-22T02:47:25.564Z,2.74
2022-10-22T02:49:58.373Z,2.72
2022-10-22T02:52:31.131Z,2.74
2022-10-22T02:55:04.558Z,2.79
2022-10-22T02:57:37.688Z,2.81
2022-10-22T03:00:12.404Z,2.79
2022-10-22T03:02:45.393Z,2.75
2022-10-22T03:05:18.448Z,2.71
2022-10-22T03:07:51.463Z,2.69
2022-10-22T03:10:24.407Z,2.66
2022-10-22T03:12:57.874Z,2.65
2022-10-22T03:15:31.439Z,2.63
2022-10-22T03:18:04.402Z,2.61
2022-10-22T03:20:37.436Z,2.60
2022-10-22T03:23:10.641Z,2.56
2022-10-22T03:25:44.809Z,2.45
2022-10-22T03:28:19.886Z,2.45
2022-10-22T03:30:53.173Z,2.40
2022-10-22T03:33:26.990Z,2.33
2022-10-22T03:35:59.895Z,2.30
2022-10-22T03:38:33.931Z,2.25
2022-10-22T03:41:06.891Z,2.22
2022-10-22T03:43:41.387Z,2.17
2022-10-22T03:46:14.711Z,2.15
2022-10-22T03:48:47.922Z,2.14
2022-10-22T03:51:20.878Z,2.15
2022-10-22T03:53:53.962Z,2.17
2022-10-22T03:56:27.920Z,2.21
2022-10-22T03:59:02.193Z,2.23
2022-10-22T04:01:35.905Z,2.26
2022-10-22T04:04:09.545Z,2.33
2022-10-22T04:06:42.894Z,2.39
2022-10-22T04:09:16.413Z,2.43
2022-10-22T04:11:49.133Z,2.45
2022-10-22T04:14:22.279Z,2.45
2022-10-22T04:16:56.029Z,2.47
2022-10-22T04:19:29.576Z,2.47
2022-10-22T04:22:02.785Z,2.49
2022-10-22T04:24:36.657Z,2.51
2022-10-22T04:27:09.898Z,2.53
2022-10-22T04:29:42.724Z,2.53
2022-10-22T04:32:15.456Z,2.54
2022-10-22T04:34:48.603Z,2.56
2022-10-22T04:37:23.019Z,2.55
2022-10-22T04:39:58.156Z,2.56
2022-10-22T04:42:31.755Z,2.55
2022-10-22T04:45:04.949Z,2.53
2022-10-22T04:47:38.055Z,2.54
2022-10-22T04:50:11.466Z,2.60
2022-10-22T04:52:44.427Z,2.63
2022-10-22T04:55:17.755Z,2.71
2022-10-22T04:57:50.777Z,2.78
2022-10-22T05:00:23.716Z,2.85
2022-10-22T05:02:57.061Z,2.92
2022-10-22T05:05:30.299Z,2.99
2022-10-22T05:08:04.183Z,3.06
2022-10-22T05:10:37.387Z,3.13
2022-10-22T05:13:10.388Z,3.20
2022-10-22T05:15:43.274Z,3.28
2022-10-22T05:18:18.996Z,3.38
2022-10-22T05:20:50.675Z,3.47
2022-10-22T05:23:23.797Z,3.54
2022-10-22T05:25:56.558Z,3.66
2022-10-22T05:28:29.657Z,3.79
2022-10-22T05:31:02.934Z,3.93
2022-10-22T05:33:37.330Z,4.08
2022-10-22T05:36:17.529Z,4.20
2022-10-22T05:38:52.470Z,4.34
2022-10-22T05:41:28.639Z,4.46
2022-10-22T05:44:02.188Z,4.57
2022-10-22T05:46:37.914Z,4.67
2022-10-22T05:49:15.527Z,4.75
2022-10-22T05:51:49.352Z,4.84
2022-10-22T05:54:23.139Z,4.92
2022-10-22T05:56:56.409Z,5.01
2022-10-22T05:59:29.779Z,5.07
2022-10-22T06:02:02.576Z,5.14
2022-10-22T06:04:35.747Z,5.23
2022-10-22T06:07:10.688Z,5.34
2022-10-22T06:09:44.111Z,5.41
2022-10-22T06:12:18.038Z,5.49
2022-10-22T06:14:51.068Z,5.56
2022-10-22T06:17:25.577Z,5.63
2022-10-22T06:19:58.664Z,5.71
2022-10-22T06:22:32.290Z,5.80
2022-10-22T06:25:08.451Z,5.88
2022-10-22T06:27:41.519Z,5.97
2022-10-22T06:30:15.121Z,6.07
2022-10-22T06:32:48.320Z,6.15
2022-10-22T06:35:21.658Z,6.23
2022-10-22T06:37:54.551Z,6.28
2022-10-22T06:40:27.539Z,6.36
2022-10-22T06:43:02.575Z,6.42
2022-10-22T06:45:37.033Z,6.49
2022-10-22T06:48:09.935Z,6.57
2022-10-22T06:50:44.303Z,6.65
2022-10-22T06:53:17.366Z,6.75
2022-10-22T06:55:50.975Z,6.85
2022-10-22T06:58:23.851Z,6.96
2022-10-22T07:01:10.065Z,7.11
2022-10-22T07:03:43.706Z,7.21
2022-10-22T07:06:16.483Z,7.35
2022-10-22T07:08:50.141Z,7.47
2022-10-22T07:11:33.546Z,7.54
2022-10-22T07:14:06.205Z,7.58
2022-10-22T07:16:41.659Z,7.64
2022-10-22T07:19:14.956Z,7.70
2022-10-22T07:21:48.119Z,7.75
2022-10-22T07:24:21.204Z,7.79
2022-10-22T07:26:54.174Z,7.85
2022-10-22T07:29:27.190Z,7.91
2022-10-22T07:32:01.500Z,7.98
2022-10-22T07:34:34.465Z,8.09
2022-10-22T07:37:09.230Z,8.18
2022-10-22T07:39:42.159Z,8.25
2022-10-22T07:42:15.020Z,8.33
2022-10-22T07:44:47.871Z,8.42
2022-10-22T07:47:20.701Z,8.49
2022-10-22T07:49:53.558Z,8.60
2022-10-22T07:52:26.765Z,8.73
2022-10-22T07:54:59.545Z,8.87
2022-10-22T07:57:32.450Z,9.02
2022-10-22T08:00:08.572Z,9.13
2022-10-22T08:02:43.792Z,9.18
2022-10-22T08:05:18.080Z,9.17
2022-10-22T08:07:50.884Z,9.16
2022-10-22T08:10:23.973Z,9.15
2022-10-22T08:12:57.950Z,9.19
2022-10-22T08:15:31.477Z,9.23
2022-10-22T08:18:04.476Z,9.24
2022-10-22T08:20:37.439Z,9.26
2022-10-22T08:23:10.758Z,9.24
2022-10-22T08:25:43.901Z,9.22
2022-10-22T08:28:19.886Z,9.23
2022-10-22T08:30:51.344Z,9.27
2022-10-22T08:33:24.340Z,9.32
2022-10-22T08:35:57.256Z,9.37
2022-10-22T08:38:31.802Z,9.40
2022-10-22T08:41:17.753Z,9.40
2022-10-22T08:44:17.476Z,9.43
2022-10-22T08:47:11.792Z,9.51
2022-10-22T08:49:45.764Z,9.65
2022-10-22T08:52:20.585Z,9.76
2022-10-22T08:54:59.746Z,9.83
2022-10-22T08:57:52.154Z,9.86
2022-10-22T09:00:34.180Z,9.88
2022-10-22T09:03:30.594Z,9.84
2022-10-22T09:06:25.774Z,9.83
2022-10-22T09:09:00.906Z,9.85
2022-10-22T09:11:41.065Z,9.88
2022-10-22T09:14:21.982Z,9.91
2022-10-22T09:17:23.664Z,9.94
2022-10-22T09:20:20.849Z,9.98
2022-10-22T09:22:58.450Z,9.96
2022-10-22T09:25:37.589Z,9.96
2022-10-22T09:28:12.446Z,9.95
2022-10-22T09:30:46.313Z,9.98
2022-10-22T09:33:28.465Z,10.04
2022-10-22T09:36:04.773Z,10.13
2022-10-22T09:38:44.283Z,10.22
2022-10-22T09:41:19.045Z,10.34
2022-10-22T09:43:53.473Z,10.43
2022-10-22T09:46:31.489Z,10.51
2022-10-22T09:49:11.727Z,10.55
2022-10-22T09:51:59.072Z,10.59
2022-10-22T09:54:42.369Z,10.60
2022-10-22T09:57:24.124Z,10.58
2022-10-22T09:59:57.867Z,10.57
2022-10-22T10:02:38.494Z,10.55
2022-10-22T10:05:07.935Z,10.53
2022-10-22T10:07:41.091Z,10.53
2022-10-22T10:10:30.285Z,10.55
2022-10-22T10:13:25.858Z,10.61
2022-10-22T10:16:44.331Z,10.67
2022-10-22T10:19:43.408Z,10.75
2022-10-22T10:22:44.104Z,10.81
2022-10-22T10:25:30.967Z,10.84
2022-10-22T10:28:35.584Z,10.86
2022-10-22T10:31:21.921Z,10.87
2022-10-22T10:34:32.800Z,10.85
2022-10-22T10:37:26.805Z,10.87
2022-10-22T10:40:22.391Z,10.89
2022-10-22T10:43:13.967Z,10.91
2022-10-22T10:49:01.999Z,10.90
2022-10-22T10:52:00.473Z,10.89
2022-10-22T10:54:52.993Z,10.88
2022-10-22T10:57:36.429Z,10.89
2022-10-22T11:00:21.388Z,10.90
2022-10-22T11:03:32.441Z,10.95
2022-10-22T11:06:20.504Z,11.04
2022-10-22T11:08:58.173Z,11.15
2022-10-22T11:11:39.722Z,11.25
2022-10-22T11:14:27.933Z,11.33
2022-10-22T11:17:08.822Z,11.43
2022-10-22T11:19:52.333Z,11.51
2022-10-22T11:22:47.265Z,11.55
2022-10-22T11:25:34.132Z,11.55
2022-10-22T11:28:36.910Z,11.53
2022-10-22T11:31:14.166Z,11.53
2022-10-22T11:34:04.689Z,11.56
2022-10-22T11:36:35.153Z,11.58
2022-10-22T11:39:08.328Z,11.58
2022-10-22T11:41:42.123Z,11.57
2022-10-22T11:44:26.224Z,11.59
2022-10-22T11:47:03.354Z,11.63
2022-10-22T11:50:02.601Z,11.68
2022-10-22T11:52:41.972Z,11.76
2022-10-22T11:55:34.286Z,11.82
2022-10-22T11:58:11.731Z,11.80
2022-10-22T12:00:49.785Z,11.75
2022-10-22T12:03:43.193Z,11.70
2022-10-22T12:06:21.288Z,11.65
2022-10-22T12:09:05.045Z,11.61
2022-10-22T12:11:45.349Z,11.56
2022-10-22T12:14:56.014Z,11.52
2022-10-22T12:17:30.431Z,11.50
2022-10-22T12:20:09.546Z,11.49
2022-10-22T12:22:42.765Z,11.49
2022-10-22T12:25:22.400Z,11.52
2022-10-22T12:27:58.933Z,11.58
2022-10-22T12:30:35.149Z,11.66
2022-10-22T12:33:11.888Z,11.71
2022-10-22T12:35:47.136Z,11.78
2022-10-22T12:38:23.917Z,11.81
2022-10-22T12:40:59.166Z,11.80
2022-10-22T12:43:33.823Z,11.78
2022-10-22T12:46:08.627Z,11.77
2022-10-22T12:48:45.231Z,11.75
2022-10-22T12:51:21.035Z,11.70
2022-10-22T12:53:57.397Z,11.63
2022-10-22T12:56:33.609Z,11.51
2022-10-22T12:59:26.030Z,11.39
2022-10-22T13:01:59.269Z,11.28
2022-10-22T13:04:39.618Z,11.15
2022-10-22T13:07:21.975Z,11.08
2022-10-22T13:10:01.312Z,11.02
2022-10-22T13:12:39.535Z,10.97
2022-10-22T13:15:31.859Z,10.96
2022-10-22T13:18:26.295Z,10.93
2022-10-22T13:21:06.123Z,10.88
2022-10-22T13:23:39.885Z,10.79
2022-10-22T13:26:18.631Z,10.71
2022-10-22T13:28:57.656Z,10.63
2022-10-22T13:31:36.322Z,10.55
2022-10-22T13:34:16.395Z,10.47
2022-10-22T13:36:47.754Z,10.40
2022-10-22T13:39:23.318Z,10.33
2022-10-22T13:41:56.148Z,10.26
2022-10-22T13:44:29.038Z,10.20
2022-10-22T13:47:01.982Z,10.12
2022-10-22T13:49:35.421Z,10.07
2022-10-22T13:52:10.372Z,9.99
2022-10-22T13:54:43.239Z,9.94
2022-10-22T13:57:16.395Z,9.88
2022-10-22T13:59:49.112Z,9.83
2022-10-22T14:02:24.590Z,9.77
2022-10-22T14:04:59.338Z,9.72
2022-10-22T14:07:32.760Z,9.67
2022-10-22T14:10:18.160Z,9.62
2022-10-22T14:12:53.435Z,9.57
2022-10-22T14:15:29.293Z,9.55
2022-10-22T14:18:03.347Z,9.54
2022-10-22T14:20:38.713Z,9.53
2022-10-22T14:23:21.285Z,9.52
2022-10-22T14:25:54.344Z,9.51
2022-10-22T14:28:27.532Z,9.50
2022-10-22T14:31:00.700Z,9.47
2022-10-22T14:33:35.224Z,9.43
2022-10-22T14:36:08.823Z,9.41
2022-10-22T14:38:42.604Z,9.36
2022-10-22T14:41:21.979Z,9.32
2022-10-22T14:43:56.070Z,9.24
2022-10-22T14:46:28.798Z,9.19
2022-10-22T14:49:03.086Z,9.15
2022-10-22T14:51:36.181Z,9.13
2022-10-22T14:54:09.223Z,9.13
2022-10-22T14:56:42.889Z,9.12
2022-10-22T14:59:15.981Z,9.11
2022-10-22T15:01:48.852Z,9.09
2022-10-22T15:04:23.621Z,9.06
2022-10-22T15:06:56.688Z,9.04
2022-10-22T15:09:31.184Z,9.02
2022-10-22T15:12:06.250Z,9.00
2022-10-22T15:14:39.259Z,8.99
2022-10-22T15:17:12.700Z,8.99
2022-10-22T15:19:46.559Z,8.96
2022-10-22T15:22:19.754Z,8.93
2022-10-22T15:24:53.909Z,8.89
2022-10-22T15:27:26.972Z,8.87
2022-10-22T15:30:00.106Z,8.86
2022-10-22T15:32:34.365Z,8.87
2022-10-22T15:35:09.006Z,8.88
2022-10-22T15:37:43.496Z,8.88
2022-10-22T15:40:16.211Z,8.87
2022-10-22T15:42:49.061Z,8.86
2022-10-22T15:45:22.686Z,8.82
2022-10-22T15:47:56.447Z,8.76
2022-10-22T15:50:30.112Z,8.72
2022-10-22T15:53:03.187Z,8.64
2022-10-22T15:55:39.193Z,8.60
2022-10-22T15:58:12.062Z,8.55
2022-10-22T16:00:45.258Z,8.50
2022-10-22T16:03:19.282Z,8.46
2022-10-22T16:05:54.766Z,8.43
2022-10-22T16:08:28.326Z,8.40
2022-10-22T16:11:04.099Z,8.38
2022-10-22T16:13:38.213Z,8.34
2022-10-22T16:16:11.497Z,8.30
2022-10-22T16:18:44.370Z,8.25
2022-10-22T16:21:18.307Z,8.22
2022-10-22T16:23:51.214Z,8.22
2022-10-22T16:26:23.970Z,8.21
2022-10-22T16:28:57.031Z,8.21
2022-10-22T16:31:31.589Z,8.19
2022-10-22T16:34:04.917Z,8.20
2022-10-22T16:36:39.834Z,8.20
2022-10-22T16:39:12.904Z,8.19
2022-10-22T16:41:47.078Z,8.18
2022-10-22T16:44:23.103Z,8.18
2022-10-22T16:46:55.989Z,8.17
2022-10-22T16:49:28.969Z,8.17
2022-10-22T16:52:04.268Z,8.17
2022-10-22T16:54:37.243Z,8.17
2022-10-22T16:57:12.004Z,8.15
2022-10-22T16:59:45.406Z,8.17
2022-10-22T17:02:21.392Z,8.19
2022-10-22T17:04:54.812Z,8.20
2022-10-22T17:07:28.031Z,8.23
2022-10-22T17:10:03.233Z,8.23
2022-10-22T17:12:36.816Z,8.23
2022-10-22T17:15:10.830Z,8.22
2022-10-22T17:17:46.984Z,8.23
2022-10-22T17:20:20.231Z,8.23
2022-10-22T17:22:53.716Z,8.24
2022-10-22T17:25:39.831Z,8.26
2022-10-22T17:28:15.441Z,8.27
2022-10-22T17:30:49.706Z,8.29
2022-10-22T17:33:23.053Z,8.25
2022-10-22T17:35:56.800Z,8.19
2022-10-22T17:38:30.106Z,8.15
2022-10-22T17:41:04.254Z,8.14
2022-10-22T17:43:39.305Z,8.15
2022-10-22T17:46:19.040Z,8.14
2022-10-22T17:48:57.808Z,8.15
2022-10-22T17:51:37.926Z,8.14
2022-10-22T17:54:16.349Z,8.15
2022-10-22T17:56:49.224Z,8.15
2022-10-22T17:59:25.461Z,8.18
2022-10-22T18:02:01.533Z,8.19
2022-10-22T18:04:36.330Z,8.16
2022-10-22T18:07:09.768Z,8.17
2022-10-22T18:09:44.762Z,8.16
2022-10-22T18:12:19.763Z,8.17
2022-10-22T18:14:54.518Z,8.18
2022-10-22T18:17:27.845Z,8.20
2022-10-22T18:20:03.557Z,8.22
2022-10-22T18:22:37.138Z,8.22
2022-10-22T18:25:10.958Z,8.20
2022-10-22T18:27:46.150Z,8.19
2022-10-22T18:30:19.123Z,8.19
2022-10-22T18:32:52.133Z,8.19
2022-10-22T18:35:24.905Z,8.19
2022-10-22T18:37:57.805Z,8.21
2022-10-22T18:40:30.660Z,8.21
2022-10-22T18:43:06.139Z,8.20
2022-10-22T18:45:43.980Z,8.18
2022-10-22T18:48:20.422Z,8.17
2022-10-22T18:51:03.849Z,8.18
2022-10-22T18:53:40.289Z,8.21
2022-10-22T18:56:14.636Z,8.23
2022-10-22T19:01:25.913Z,8.27
2022-10-22T19:03:59.068Z,8.26
2022-10-22T19:06:34.419Z,8.26
2022-10-22T19:09:09.401Z,8.29
2022-10-22T19:11:42.438Z,8.29
2022-10-22T19:14:18.911Z,8.31
2022-10-22T19:16:51.900Z,8.33
2022-10-22T19:19:25.297Z,8.34
2022-10-22T19:21:59.827Z,8.34
2022-10-22T19:24:32.907Z,8.34
2022-10-22T19:27:05.034Z,8.32
2022-10-22T19:29:39.013Z,8.33
2022-10-22T19:32:14.595Z,8.34
2022-10-22T19:34:47.718Z,8.34
2022-10-22T19:37:20.526Z,8.34
2022-10-22T19:39:54.126Z,8.30
2022-10-22T19:42:27.092Z,8.29
2022-10-22T19:45:00.451Z,8.27
2022-10-22T19:47:34.393Z,8.26
2022-10-22T19:50:07.786Z,8.24
2022-10-22T19:52:40.896Z,8.24
2022-10-22T19:55:13.848Z,8.25
2022-10-22T19:57:47.055Z,8.24
2022-10-22T20:00:19.942Z,8.23
2022-10-22T20:02:53.004Z,8.20
2022-10-22T20:05:25.907Z,8.19
2022-10-22T20:07:59.264Z,8.17
2022-10-22T20:10:33.493Z,8.14
2022-10-22T20:13:06.978Z,8.10
2022-10-22T20:15:40.272Z,8.10
2022-10-22T20:18:14.397Z,8.07
2022-10-22T20:20:47.530Z,8.05
2022-10-22T20:23:20.375Z,8.03
2022-10-22T20:25:53.333Z,8.02
2022-10-22T20:28:26.718Z,7.99
2022-10-22T20:30:59.762Z,8.00
2022-10-22T20:33:32.771Z,8.01
2022-10-22T20:36:09.769Z,8.03
2022-10-22T20:38:43.562Z,8.03
2022-10-22T20:41:23.279Z,8.03
2022-10-22T20:43:56.449Z,8.01
2022-10-22T20:46:33.948Z,7.97
2022-10-22T20:49:16.118Z,7.96
2022-10-22T20:51:48.905Z,7.91
2022-10-22T20:54:21.854Z,7.88
2022-10-22T20:56:54.815Z,7.88
2022-10-22T20:59:30.536Z,7.90
2022-10-22T21:02:03.855Z,7.92
2022-10-22T21:04:36.667Z,7.94
2022-10-22T21:07:10.629Z,7.95
2022-10-22T21:09:44.069Z,7.97
2022-10-22T21:12:17.166Z,7.99
2022-10-22T21:14:50.547Z,8.02
2022-10-22T21:17:23.364Z,8.07
2022-10-22T21:19:57.858Z,8.09
2022-10-22T21:22:30.760Z,8.12
2022-10-22T21:25:03.733Z,8.13
2022-10-22T21:27:36.666Z,8.14
2022-10-22T21:30:11.263Z,8.15
2022-10-22T21:32:45.136Z,8.17
2022-10-22T21:35:18.584Z,8.20
2022-10-22T21:37:51.376Z,8.20
2022-10-22T21:40:25.131Z,8.20
2022-10-22T21:42:58.020Z,8.19
2022-10-22T21:45:30.852Z,8.18
2022-10-22T21:48:04.427Z,8.17
2022-10-22T21:50:42.872Z,8.15
2022-10-22T21:53:15.968Z,8.14
2022-10-22T21:55:49.215Z,8.14
2022-10-22T21:58:22.635Z,8.16
2022-10-22T22:01:00.733Z,8.18
2022-10-22T22:03:33.651Z,8.19
2022-10-22T22:06:08.124Z,8.21
2022-10-22T22:08:41.426Z,8.21
2022-10-22T22:11:18.788Z,8.20
2022-10-22T22:13:54.316Z,8.19
2022-10-22T22:16:33.510Z,8.17
2022-10-22T22:19:09.640Z,8.13
2022-10-22T22:21:42.986Z,8.11
2022-10-22T22:24:15.959Z,8.09
2022-10-22T22:26:50.402Z,8.07
2022-10-22T22:29:23.376Z,8.04
2022-10-22T22:31:57.314Z,8.02
2022-10-22T22:34:30.398Z,7.97
2022-10-22T22:37:03.883Z,7.94
2022-10-22T22:39:36.962Z,7.88
2022-10-22T22:42:09.911Z,7.83
2022-10-22T22:44:43.156Z,7.78
2022-10-22T22:47:15.909Z,7.74
2022-10-22T22:49:49.186Z,7.69
2022-10-22T22:52:22.229Z,7.66
2022-10-22T22:54:55.230Z,7.63
2022-10-22T22:57:28.170Z,7.64
2022-10-22T23:00:00.955Z,7.61
2022-10-22T23:02:34.279Z,7.62
2022-10-22T23:05:07.817Z,7.61
2022-10-22T23:07:40.607Z,7.59
2022-10-22T23:10:15.249Z,7.58
2022-10-22T23:12:48.057Z,7.57
2022-10-22T23:15:22.991Z,7.58
2022-10-22T23:17:57.337Z,7.59
2022-10-22T23:20:30.301Z,7.58
2022-10-22T23:23:05.028Z,7.56
2022-10-22T23:25:37.913Z,7.53
2022-10-22T23:28:10.553Z,7.54
2022-10-22T23:30:45.887Z,7.56
2022-10-22T23:33:19.804Z,7.59
2022-10-22T23:35:52.867Z,7.60
2022-10-22T23:38:25.722Z,7.60
2022-10-22T23:40:59.304Z,7.60
2022-10-22T23:43:34.565Z,7.60
2022-10-22T23:46:11.062Z,7.60
2022-10-22T23:48:44.332Z,7.60
2022-10-22T23:51:19.109Z,7.61
2022-10-22T23:53:55.964Z,7.64
2022-10-22T23:56:30.047Z,7.63
2022-10-22T23:59:03.558Z,7.58
